createdAt,value
2018-12-22T00:01:53.969Z,100.00
2018-12-22T00:04:22.538Z,100.00
2018-12-22T00:06:51.235Z,100.00
2018-12-22T00:09:19.952Z,100.00
2018-12-22T00:11:48.637Z,100.00
2018-12-22T00:14:17.232Z,100.00
2018-12-22T00:16:46.015Z,100.00
2018-12-22T00:19:14.604Z,100.00
2018-12-22T00:21:43.269Z,100.00
2018-12-22T00:24:12.014Z,100.00
2018-12-22T00:26:40.566Z,100.00
2018-12-22T00:29:09.269Z,100.00
2018-12-22T00:31:38.132Z,100.00
2018-12-22T00:34:07.314Z,100.00
2018-12-22T00:36:35.969Z,100.00
2018-12-22T00:39:06.510Z,100.00
2018-12-22T00:41:35.147Z,100.00
2018-12-22T00:44:03.894Z,100.00
2018-12-22T00:46:32.501Z,100.00
2018-12-22T00:49:01.024Z,100.00
2018-12-22T00:51:29.541Z,100.00
2018-12-22T00:53:58.134Z,100.00
2018-12-22T00:56:26.906Z,100.00
2018-12-22T00:58:55.554Z,100.00
2018-12-22T01:01:24.156Z,100.00
2018-12-22T01:03:52.768Z,100.00
2018-12-22T01:06:21.296Z,100.00
2018-12-22T01:08:49.844Z,100.00
2018-12-22T01:11:18.389Z,100.00
2018-12-22T01:13:47.185Z,100.00
2018-12-22T01:16:15.953Z,100.00
2018-12-22T01:18:44.609Z,100.00
2018-12-22T01:21:13.140Z,100.00
2018-12-22T01:23:41.708Z,100.00
2018-12-22T01:26:10.291Z,100.00
2018-12-22T01:28:39.538Z,100.00
2018-12-22T01:31:08.519Z,100.00
2018-12-22T01:33:37.108Z,100.00
2018-12-22T01:36:05.623Z,100.00
2018-12-22T01:38:34.121Z,100.00
2018-12-22T01:41:02.852Z,100.00
2018-12-22T01:43:31.489Z,100.00
2018-12-22T01:46:00.162Z,100.00
2018-12-22T01:48:28.714Z,100.00
2018-12-22T01:50:57.266Z,100.00
2018-12-22T01:53:25.892Z,100.00
2018-12-22T01:55:54.419Z,100.00
2018-12-22T01:58:22.970Z,100.00
2018-12-22T02:00:51.507Z,100.00
2018-12-22T02:03:20.031Z,100.00
2018-12-22T02:05:48.673Z,100.00
2018-12-22T02:08:17.258Z,100.00
2018-12-22T02:10:45.859Z,100.00
2018-12-22T02:13:14.465Z,100.00
2018-12-22T02:15:43.105Z,100.00
2018-12-22T02:18:11.698Z,100.00
2018-12-22T02:20:40.282Z,100.00
2018-12-22T02:23:08.875Z,100.00
2018-12-22T02:25:37.447Z,100.00
2018-12-22T02:28:06.020Z,100.00
2018-12-22T02:30:34.604Z,100.00
2018-12-22T02:33:03.215Z,100.00
2018-12-22T02:35:31.856Z,100.00
2018-12-22T02:38:00.809Z,100.00
2018-12-22T02:40:29.380Z,100.00
2018-12-22T02:42:57.999Z,100.00
2018-12-22T02:45:26.653Z,100.00
2018-12-22T02:47:55.192Z,100.00
2018-12-22T02:50:24.391Z,100.00
2018-12-22T02:52:52.974Z,100.00
2018-12-22T02:55:21.994Z,100.00
2018-12-22T02:57:50.741Z,100.00
2018-12-22T03:00:19.441Z,100.00
2018-12-22T03:02:47.997Z,100.00
2018-12-22T03:05:16.852Z,100.00
2018-12-22T03:07:45.399Z,100.00
2018-12-22T03:10:14.034Z,100.00
2018-12-22T03:12:42.562Z,100.00
2018-12-22T03:15:11.126Z,100.00
2018-12-22T03:17:39.677Z,100.00
2018-12-22T03:20:08.360Z,100.00
2018-12-22T03:22:37.002Z,100.00
2018-12-22T03:25:05.769Z,100.00
2018-12-22T03:27:34.335Z,100.00
2018-12-22T03:30:06.282Z,100.00
2018-12-22T03:32:34.859Z,100.00
2018-12-22T03:35:03.528Z,100.00
2018-12-22T03:37:32.106Z,100.00
2018-12-22T03:40:00.698Z,100.00
2018-12-22T03:42:29.342Z,100.00
2018-12-22T03:44:57.906Z,100.00
2018-12-22T03:47:26.508Z,100.00
2018-12-22T03:49:55.042Z,100.00
2018-12-22T03:52:23.600Z,100.00
2018-12-22T03:54:52.138Z,100.00
2018-12-22T03:57:20.693Z,100.00
2018-12-22T03:59:49.538Z,100.00
2018-12-22T04:02:18.104Z,100.00
2018-12-22T04:04:46.767Z,100.00
2018-12-22T04:07:15.902Z,100.00
2018-12-22T04:09:44.657Z,100.00
2018-12-22T04:12:13.233Z,100.00
2018-12-22T04:14:42.395Z,100.00
2018-12-22T04:17:11.060Z,100.00
2018-12-22T04:19:39.686Z,100.00
2018-12-22T04:22:08.222Z,100.00
2018-12-22T04:24:36.862Z,100.00
2018-12-22T04:27:05.405Z,100.00
2018-12-22T04:29:34.415Z,100.00
2018-12-22T04:32:03.081Z,100.00
2018-12-22T04:34:31.635Z,100.00
2018-12-22T04:37:00.176Z,100.00
2018-12-22T04:39:28.801Z,100.00
2018-12-22T04:41:57.371Z,100.00
2018-12-22T04:44:25.904Z,100.00
2018-12-22T04:46:54.505Z,100.00
2018-12-22T04:49:23.043Z,100.00
2018-12-22T04:51:51.606Z,100.00
2018-12-22T04:54:20.161Z,100.00
2018-12-22T04:56:48.776Z,100.00
2018-12-22T04:59:17.295Z,100.00
2018-12-22T05:01:45.841Z,100.00
2018-12-22T05:04:14.449Z,100.00
2018-12-22T05:06:42.983Z,100.00
2018-12-22T05:09:11.550Z,100.00
2018-12-22T05:11:40.201Z,100.00
2018-12-22T05:14:08.764Z,100.00
2018-12-22T05:16:37.336Z,100.00
2018-12-22T05:19:05.924Z,100.00
2018-12-22T05:21:34.433Z,100.00
2018-12-22T05:24:03.002Z,100.00
2018-12-22T05:26:31.547Z,100.00
2018-12-22T05:29:00.094Z,100.00
2018-12-22T05:31:28.779Z,100.00
2018-12-22T05:33:57.565Z,100.00
2018-12-22T05:36:26.109Z,100.00
2018-12-22T05:38:54.808Z,100.00
2018-12-22T05:41:23.905Z,100.00
2018-12-22T05:43:52.523Z,100.00
2018-12-22T05:46:21.086Z,100.00
2018-12-22T05:48:49.775Z,100.00
2018-12-22T05:51:18.336Z,100.00
2018-12-22T05:53:46.843Z,100.00
2018-12-22T05:56:15.411Z,100.00
2018-12-22T05:58:43.998Z,100.00
2018-12-22T06:01:12.535Z,100.00
2018-12-22T06:03:41.145Z,100.00
2018-12-22T06:06:09.877Z,100.00
2018-12-22T06:08:38.404Z,100.00
2018-12-22T06:11:06.987Z,100.00
2018-12-22T06:13:35.823Z,100.00
2018-12-22T06:16:05.447Z,100.00
2018-12-22T06:18:34.052Z,100.00
2018-12-22T06:21:02.715Z,100.00
2018-12-22T06:23:31.322Z,100.00
2018-12-22T06:25:59.890Z,100.00
2018-12-22T06:28:28.507Z,100.00
2018-12-22T06:30:57.068Z,100.00
2018-12-22T06:33:25.647Z,100.00
2018-12-22T06:35:54.239Z,100.00
2018-12-22T06:38:22.828Z,100.00
2018-12-22T06:40:51.364Z,100.00
2018-12-22T06:43:19.949Z,100.00
2018-12-22T06:45:48.621Z,100.00
2018-12-22T06:48:17.200Z,100.00
2018-12-22T06:50:45.787Z,100.00
2018-12-22T06:53:14.709Z,100.00
2018-12-22T06:55:43.272Z,100.00
2018-12-22T06:58:11.838Z,100.00
2018-12-22T07:00:40.369Z,100.00
2018-12-22T07:03:08.929Z,100.00
2018-12-22T07:05:37.525Z,100.00
2018-12-22T07:08:06.090Z,100.00
2018-12-22T07:10:34.723Z,100.00
2018-12-22T07:13:03.308Z,100.00
2018-12-22T07:15:31.884Z,100.00
2018-12-22T07:18:00.476Z,100.00
2018-12-22T07:20:29.130Z,100.00
2018-12-22T07:22:57.798Z,100.00
2018-12-22T07:25:26.401Z,100.00
2018-12-22T07:27:55.017Z,100.00
2018-12-22T07:30:26.272Z,100.00
2018-12-22T07:32:57.133Z,100.00
2018-12-22T07:35:24.964Z,100.00
2018-12-22T07:37:53.520Z,100.00
2018-12-22T07:40:22.033Z,100.00
2018-12-22T07:42:50.741Z,99.71
2018-12-22T07:45:19.398Z,100.00
2018-12-22T07:47:47.936Z,100.00
2018-12-22T07:50:16.646Z,100.00
2018-12-22T07:52:51.619Z,99.56
2018-12-22T07:55:15.762Z,100.00
2018-12-22T07:57:44.314Z,99.84
2018-12-22T08:00:12.891Z,100.00
2018-12-22T08:02:41.478Z,100.00
2018-12-22T08:05:10.084Z,100.00
2018-12-22T08:07:38.598Z,100.00
2018-12-22T08:10:07.731Z,100.00
2018-12-22T08:12:36.341Z,100.00
2018-12-22T08:15:05.170Z,100.00
2018-12-22T08:17:33.738Z,100.00
2018-12-22T08:20:02.343Z,100.00
2018-12-22T08:22:31.001Z,100.00
2018-12-22T08:24:59.596Z,98.67
2018-12-22T08:27:28.238Z,98.18
2018-12-22T08:29:56.934Z,96.88
2018-12-22T08:32:25.509Z,91.74
2018-12-22T08:34:54.145Z,87.48
2018-12-22T08:37:22.734Z,83.61
2018-12-22T08:39:51.293Z,81.62
2018-12-22T08:42:19.849Z,81.03
2018-12-22T08:44:48.493Z,79.90
2018-12-22T08:47:17.068Z,79.75
2018-12-22T08:49:45.674Z,79.87
2018-12-22T08:52:14.350Z,79.78
2018-12-22T08:54:42.948Z,79.06
2018-12-22T08:57:11.520Z,79.91
2018-12-22T08:59:40.087Z,80.79
2018-12-22T09:02:08.676Z,81.59
2018-12-22T09:04:37.236Z,80.10
2018-12-22T09:07:05.816Z,80.02
2018-12-22T09:09:34.469Z,79.07
2018-12-22T09:12:03.081Z,79.06
2018-12-22T09:14:31.640Z,78.37
2018-12-22T09:17:00.221Z,77.26
2018-12-22T09:19:28.765Z,77.70
2018-12-22T09:21:57.338Z,77.70
2018-12-22T09:24:26.004Z,77.21
2018-12-22T09:26:54.641Z,77.83
2018-12-22T09:29:23.200Z,77.00
2018-12-22T09:31:51.790Z,75.96
2018-12-22T09:34:20.343Z,75.46
2018-12-22T09:36:48.893Z,75.90
2018-12-22T09:39:17.528Z,75.96
2018-12-22T09:41:46.113Z,78.04
2018-12-22T09:44:14.744Z,80.65
2018-12-22T09:46:43.406Z,81.30
2018-12-22T09:49:11.996Z,80.72
2018-12-22T09:51:40.568Z,80.25
2018-12-22T09:54:09.099Z,79.76
2018-12-22T09:56:37.684Z,79.39
2018-12-22T09:59:06.540Z,78.28
2018-12-22T10:01:35.301Z,77.75
2018-12-22T10:04:03.876Z,77.03
2018-12-22T10:06:32.391Z,75.98
2018-12-22T10:09:00.967Z,76.74
2018-12-22T10:11:29.606Z,77.43
2018-12-22T10:13:58.157Z,76.92
2018-12-22T10:16:26.764Z,75.62
2018-12-22T10:18:55.270Z,74.28
2018-12-22T10:21:23.785Z,75.80
2018-12-22T10:23:52.355Z,75.22
2018-12-22T10:26:21.029Z,75.55
2018-12-22T10:28:49.628Z,75.40
2018-12-22T10:31:18.434Z,75.30
2018-12-22T10:33:47.131Z,76.98
2018-12-22T10:36:15.764Z,77.98
2018-12-22T10:38:44.336Z,78.00
2018-12-22T10:41:12.853Z,77.73
2018-12-22T10:43:41.387Z,79.04
2018-12-22T10:46:09.992Z,76.87
2018-12-22T10:48:38.626Z,76.45
2018-12-22T10:51:07.236Z,76.11
2018-12-22T10:53:35.794Z,76.60
2018-12-22T10:56:04.343Z,76.64
2018-12-22T10:58:32.930Z,76.76
2018-12-22T11:01:01.465Z,76.60
2018-12-22T11:03:32.031Z,76.09
2018-12-22T11:06:00.694Z,75.64
2018-12-22T11:08:29.265Z,75.93
2018-12-22T11:10:57.828Z,75.72
2018-12-22T11:13:26.415Z,75.54
2018-12-22T11:15:54.985Z,76.17
2018-12-22T11:18:23.561Z,75.77
2018-12-22T11:20:52.196Z,77.16
2018-12-22T11:23:20.864Z,76.63
2018-12-22T11:25:49.421Z,76.41
2018-12-22T11:28:17.952Z,76.56
2018-12-22T11:30:46.782Z,76.47
2018-12-22T11:33:15.320Z,76.39
2018-12-22T11:35:43.846Z,76.20
2018-12-22T11:38:12.431Z,76.42
2018-12-22T11:40:41.053Z,76.28
2018-12-22T11:43:09.703Z,75.50
2018-12-22T11:45:38.373Z,75.94
2018-12-22T11:48:21.849Z,75.76
2018-12-22T11:50:50.408Z,76.85
2018-12-22T11:53:19.001Z,76.08
2018-12-22T11:55:47.577Z,76.67
2018-12-22T11:58:16.212Z,76.94
2018-12-22T12:00:44.774Z,77.02
2018-12-22T12:03:13.306Z,77.45
2018-12-22T12:05:42.560Z,77.58
2018-12-22T12:08:11.094Z,77.04
2018-12-22T12:10:39.627Z,77.14
2018-12-22T12:13:08.160Z,76.48
2018-12-22T12:15:43.002Z,77.34
2018-12-22T12:18:55.816Z,77.19
2018-12-22T12:21:24.352Z,76.67
2018-12-22T12:23:52.902Z,77.12
2018-12-22T12:26:21.467Z,75.96
2018-12-22T12:28:49.972Z,75.93
2018-12-22T14:05:33.449Z,84.40
2018-12-22T14:08:01.999Z,84.90
2018-12-22T14:10:30.553Z,84.54
2018-12-22T14:12:59.132Z,85.17
2018-12-22T14:15:27.829Z,85.31
2018-12-22T14:19:03.848Z,84.97
2018-12-22T14:21:32.433Z,85.52
2018-12-22T14:24:14.514Z,85.23
2018-12-22T14:26:43.204Z,86.16
2018-12-22T14:29:11.764Z,85.16
2018-12-22T14:31:40.465Z,86.49
2018-12-22T14:34:13.582Z,86.06
2018-12-22T14:36:42.277Z,86.79
2018-12-22T14:39:10.914Z,86.69
2018-12-22T14:41:39.655Z,87.38
2018-12-22T14:44:08.271Z,87.10
2018-12-22T14:46:36.847Z,87.50
2018-12-22T14:49:05.420Z,87.32
2018-12-22T14:51:33.992Z,88.08
2018-12-22T14:54:02.522Z,88.21
2018-12-22T14:56:37.074Z,88.23
2018-12-22T14:59:06.249Z,88.72
2018-12-22T15:01:34.811Z,89.24
2018-12-22T15:04:03.392Z,88.83
2018-12-22T15:06:31.987Z,89.76
2018-12-22T15:09:00.569Z,90.23
2018-12-22T15:11:29.169Z,90.25
2018-12-22T15:13:57.722Z,90.16
2018-12-22T15:16:26.307Z,90.24
2018-12-22T15:18:55.027Z,90.46
2018-12-22T15:21:23.606Z,89.62
2018-12-22T15:23:52.168Z,89.84
2018-12-22T15:26:20.721Z,90.57
2018-12-22T15:28:49.286Z,90.81
2018-12-22T15:31:17.905Z,90.64
2018-12-22T15:33:46.479Z,90.14
2018-12-22T15:36:15.086Z,90.25
2018-12-22T15:38:43.639Z,90.85
2018-12-22T15:41:12.213Z,90.45
2018-12-22T15:43:40.773Z,90.40
2018-12-22T15:46:09.335Z,90.19
2018-12-22T15:48:37.939Z,90.20
2018-12-22T15:51:06.517Z,90.58
2018-12-22T15:53:35.037Z,91.12
2018-12-22T15:56:03.613Z,90.20
2018-12-22T15:58:32.149Z,90.54
2018-12-22T16:01:01.636Z,90.59
2018-12-22T16:03:30.292Z,91.09
2018-12-22T16:05:58.868Z,91.11
2018-12-22T16:08:27.489Z,91.57
2018-12-22T16:10:56.083Z,92.16
2018-12-22T16:13:24.687Z,92.09
2018-12-22T16:15:53.617Z,91.10
2018-12-22T16:18:22.198Z,91.36
2018-12-22T16:20:50.753Z,91.92
2018-12-22T16:23:19.310Z,91.29
2018-12-22T16:25:47.906Z,91.60
2018-12-22T16:28:20.752Z,91.97
2018-12-22T16:30:54.453Z,91.53
2018-12-22T16:33:23.215Z,91.77
2018-12-22T16:35:51.728Z,91.76
2018-12-22T16:38:20.327Z,91.67
2018-12-22T16:40:48.943Z,91.86
2018-12-22T16:43:18.503Z,92.00
2018-12-22T16:45:49.399Z,91.82
2018-12-22T16:48:19.073Z,91.58
2018-12-22T16:50:48.048Z,91.69
2018-12-22T16:53:16.639Z,91.98
2018-12-22T16:55:45.232Z,91.71
2018-12-22T16:58:24.138Z,91.67
2018-12-22T17:00:58.071Z,91.75
2018-12-22T17:03:26.771Z,91.91
2018-12-22T17:05:55.338Z,91.73
2018-12-22T17:08:23.908Z,91.94
2018-12-22T17:10:56.680Z,92.60
2018-12-22T17:13:25.365Z,93.07
2018-12-22T17:15:56.816Z,93.69
2018-12-22T17:18:25.772Z,93.95
2018-12-22T17:21:01.888Z,93.92
2018-12-22T17:23:39.504Z,94.17
2018-12-22T17:26:09.438Z,94.78
2018-12-22T17:28:38.028Z,94.98
2018-12-22T17:31:06.635Z,95.27
2018-12-22T17:33:36.294Z,95.20
2018-12-22T17:36:05.478Z,95.49
2018-12-22T17:38:34.028Z,95.74
2018-12-22T17:41:02.959Z,94.80
2018-12-22T17:43:31.850Z,95.36
2018-12-22T17:46:00.560Z,95.12
2018-12-22T17:48:29.184Z,94.78
2018-12-22T17:50:57.736Z,94.46
2018-12-22T17:53:26.289Z,94.82
2018-12-22T17:55:54.889Z,94.31
2018-12-22T17:58:23.595Z,95.12
2018-12-22T18:00:52.245Z,94.58
2018-12-22T18:03:27.372Z,95.45
2018-12-22T18:05:52.837Z,95.16
2018-12-22T18:08:21.394Z,96.01
2018-12-22T18:10:50.860Z,95.96
2018-12-22T18:13:19.434Z,96.24
2018-12-22T18:15:48.101Z,95.88
2018-12-22T18:18:16.732Z,96.36
2018-12-22T18:20:45.297Z,96.30
2018-12-22T18:23:13.926Z,95.75
2018-12-22T18:25:42.561Z,95.45
2018-12-22T18:28:11.479Z,95.53
2018-12-22T18:30:40.169Z,95.74
2018-12-22T18:33:08.694Z,95.62
2018-12-22T18:35:37.253Z,96.33
2018-12-22T18:38:05.847Z,96.17
2018-12-22T18:40:34.435Z,96.48
2018-12-22T18:43:03.138Z,97.03
2018-12-22T18:45:31.761Z,96.63
2018-12-22T18:48:00.297Z,97.19
2018-12-22T18:50:29.002Z,96.46
2018-12-22T18:52:57.553Z,97.02
2018-12-22T18:55:26.097Z,96.89
2018-12-22T18:57:56.592Z,97.13
2018-12-22T19:00:26.126Z,96.47
2018-12-22T19:02:54.708Z,95.70
2018-12-22T19:05:23.665Z,95.83
2018-12-22T19:07:55.351Z,95.56
2018-12-22T19:10:29.058Z,95.40
2018-12-22T19:12:57.701Z,95.51
2018-12-22T19:15:26.264Z,94.90
2018-12-22T19:17:54.796Z,95.33
2018-12-22T19:20:27.411Z,95.82
2018-12-22T19:22:55.971Z,95.95
2018-12-22T19:25:24.792Z,96.62
2018-12-22T19:27:53.877Z,96.90
2018-12-22T19:30:23.374Z,96.74
2018-12-22T19:32:51.948Z,97.24
2018-12-22T19:35:20.521Z,96.78
2018-12-22T19:37:49.098Z,96.88
2018-12-22T19:40:17.674Z,96.10
2018-12-22T19:42:46.266Z,96.22
2018-12-22T19:45:14.851Z,97.15
2018-12-22T19:47:43.500Z,97.09
2018-12-22T19:50:12.080Z,97.27
2018-12-22T19:52:40.645Z,97.78
2018-12-22T19:55:09.238Z,97.37
2018-12-22T19:57:37.766Z,97.60
2018-12-22T20:00:13.585Z,97.39
2018-12-22T20:02:42.158Z,97.61
2018-12-22T20:05:10.834Z,97.22
2018-12-22T20:07:39.365Z,97.28
2018-12-22T20:10:09.194Z,97.13
2018-12-22T20:12:37.762Z,96.96
2018-12-22T20:15:06.630Z,96.39
2018-12-22T20:17:35.541Z,95.28
2018-12-22T20:20:04.470Z,95.37
2018-12-22T20:22:33.115Z,94.99
2018-12-22T20:25:01.699Z,94.56
2018-12-22T20:27:30.264Z,94.11
2018-12-22T20:29:58.899Z,94.11
2018-12-22T20:32:27.428Z,94.09
2018-12-22T20:34:55.992Z,93.12
2018-12-22T20:37:24.784Z,93.26
2018-12-22T20:39:53.912Z,94.12
2018-12-22T20:42:22.596Z,93.31
2018-12-22T20:44:51.159Z,93.34
2018-12-22T20:47:19.717Z,93.44
2018-12-22T20:49:48.419Z,93.45
2018-12-22T20:52:16.995Z,93.80
2018-12-22T20:54:45.916Z,94.24
2018-12-22T20:57:14.605Z,94.31
2018-12-22T20:59:43.182Z,93.99
2018-12-22T21:02:11.810Z,96.56
2018-12-22T21:04:40.392Z,92.76
2018-12-22T21:07:08.926Z,92.98
2018-12-22T21:09:37.486Z,93.30
2018-12-22T21:12:06.088Z,93.14
2018-12-22T21:14:34.655Z,94.09
2018-12-22T21:17:03.223Z,94.14
2018-12-22T21:19:31.786Z,94.80
2018-12-22T21:22:00.350Z,94.63
2018-12-22T21:24:28.921Z,94.91
2018-12-22T21:26:57.508Z,95.43
2018-12-22T21:29:26.064Z,94.68
2018-12-22T21:31:55.229Z,94.76
2018-12-22T21:34:28.284Z,94.76
2018-12-22T21:36:54.323Z,94.34
2018-12-22T21:39:22.880Z,94.83
2018-12-22T21:41:51.484Z,94.77
2018-12-22T21:44:20.334Z,94.69
2018-12-22T21:46:48.870Z,94.17
2018-12-22T21:49:17.554Z,94.81
2018-12-22T21:51:46.123Z,94.86
2018-12-22T21:54:14.709Z,95.12
2018-12-22T21:56:43.260Z,95.22
2018-12-22T21:59:11.829Z,95.59
2018-12-22T22:01:40.362Z,95.58
2018-12-22T22:04:08.906Z,95.49
2018-12-22T22:06:37.935Z,95.40
2018-12-22T22:09:06.918Z,95.55
2018-12-22T22:11:35.617Z,95.34
2018-12-22T22:14:04.130Z,95.70
2018-12-22T22:16:32.735Z,95.13
2018-12-22T22:19:01.291Z,95.10
2018-12-22T22:21:29.858Z,95.51
2018-12-22T22:23:58.426Z,96.16
2018-12-22T22:26:26.981Z,96.42
2018-12-22T22:28:55.516Z,95.48
2018-12-22T22:31:24.073Z,95.77
2018-12-22T22:33:52.590Z,95.83
2018-12-22T22:36:21.113Z,94.86
2018-12-22T22:38:49.682Z,95.33
2018-12-22T22:41:18.237Z,94.50
2018-12-22T22:43:46.813Z,94.60
2018-12-22T22:46:15.369Z,94.98
2018-12-22T22:48:43.953Z,94.44
2018-12-22T22:51:12.630Z,94.84
2018-12-22T22:53:41.197Z,94.64
2018-12-22T22:56:09.775Z,95.65
2018-12-22T22:58:38.317Z,95.50
2018-12-22T23:01:06.992Z,95.45
2018-12-22T23:03:35.569Z,95.30
2018-12-22T23:06:04.167Z,95.18
2018-12-22T23:08:32.712Z,95.70
2018-12-22T23:11:01.362Z,95.51
2018-12-22T23:13:29.973Z,96.06
2018-12-22T23:15:58.588Z,96.37
2018-12-22T23:18:27.158Z,96.75
2018-12-22T23:20:55.727Z,96.83
2018-12-22T23:23:24.259Z,96.78
2018-12-22T23:25:52.789Z,95.90
2018-12-22T23:28:21.299Z,95.55
2018-12-22T23:30:49.918Z,95.56
2018-12-22T23:33:18.809Z,94.84
2018-12-22T23:35:47.345Z,94.65
2018-12-22T23:38:15.896Z,94.54
2018-12-22T23:40:44.468Z,93.63
2018-12-22T23:43:13.029Z,93.91
2018-12-22T23:45:41.566Z,93.46
2018-12-22T23:48:10.142Z,94.13
2018-12-22T23:50:38.726Z,93.54
2018-12-22T23:53:07.315Z,94.15
2018-12-22T23:55:35.900Z,93.96
2018-12-22T23:58:04.507Z,94.49
